National Weather Service Raw Text Product

Displaying AFOS PIL: TAFMCW Received: 2018-01-03 05:37 UTC


047 
FTUS43 KDMX 030537 AAB
TAFMCW
TAF AMD
KMCW 030537Z 0306/0406 31013G20KT P6SM -SN SCT035 BKN045
      TEMPO 0306/0307 3SM -SN BKN030
     FM030700 32017G24KT P6SM -SN BKN035
     FM031000 33017G25KT P6SM SCT150
     FM040000 32011KT P6SM FEW250=